Time;durP1;ratioP1;P1;durP2;ratioP2;P2;SDS_P1;SDS_P2;PMS_P1;PMS_P2;Temp;Humidity;BMP_temperature;BMP_pressure;BME280_temperature;BME280_humidity;BME280_pressure;Samples;Min_cycle;Max_cycle;Signal;HPM_P1;HPM_P2
2022/06/03 00:00:00;;;;;;;15.25;9.58;;;;;;;;;;1725183;83;21138;-86
2022/06/03 00:02:35;;;;;;;13.25;10.23;;;;;;;;;;1754231;81;21176;-85
2022/06/03 00:05:09;;;;;;;14.58;10.13;;;;;;;;;;1760517;80;21205;-86
2022/06/03 00:07:42;;;;;;;16.05;10.25;;;;;;;;;;1743487;82;21174;-85
2022/06/03 00:10:16;;;;;;;16.70;10.50;;;;;;;;;;1743006;80;21195;-87
2022/06/03 00:12:50;;;;;;;13.20;9.95;;;;;;;;;;1745482;80;21118;-86
2022/06/03 00:15:23;;;;;;;16.82;9.55;;;;;;;;;;1748192;80;21346;-85
2022/06/03 00:17:56;;;;;;;15.83;9.60;;;;;;;;;;1758963;81;21257;-85
2022/06/03 00:20:29;;;;;;;12.00;9.18;;;;;;;;;;1771250;81;21198;-85
2022/06/03 00:23:03;;;;;;;13.22;8.90;;;;;;;;;;1770128;81;21167;-85
2022/06/03 00:25:35;;;;;;;15.13;9.38;;;;;;;;;;1768952;81;21249;-85
2022/06/03 00:28:08;;;;;;;10.88;9.10;;;;;;;;;;1752380;81;21226;-84
2022/06/03 00:30:40;;;;;;;17.95;10.65;;;;;;;;;;1752259;82;21187;-85
2022/06/03 00:33:14;;;;;;;14.35;9.38;;;;;;;;;;1746114;81;21139;-85
2022/06/03 00:35:46;;;;;;;13.50;9.25;;;;;;;;;;1743825;82;21156;-85
2022/06/03 00:38:19;;;;;;;12.45;9.38;;;;;;;;;;1745303;81;21156;-85
2022/06/03 00:40:54;;;;;;;16.67;10.35;;;;;;;;;;1742305;82;21718;-86
2022/06/03 00:43:32;;;;;;;13.40;9.95;;;;;;;;;;1744473;82;21117;-85
2022/06/03 00:46:16;;;;;;;;;;;;;;;;;;;;;
2022/06/03 00:48:54;;;;;;;16.27;9.43;;;;;;;;;;1691885;82;21194;-86
2022/06/03 00:51:34;;;;;;;15.65;10.20;;;;;;;;;;1736673;81;21133;-84
2022/06/03 00:54:04;;;;;;;13.58;9.25;;;;;;;;;;1744414;81;21256;-87
2022/06/03 00:56:47;;;;;;;14.55;9.88;;;;;;;;;;1744063;81;21111;-83
2022/06/03 00:59:19;;;;;;;14.95;9.25;;;;;;;;;;1740255;81;21251;-80
2022/06/03 01:01:59;;;;;;;15.48;9.85;;;;;;;;;;1739133;81;21118;-80
2022/06/03 01:04:56;;;;;;;;;;;;;;;;;;;;;
2022/06/03 01:07:22;;;;;;;18.32;9.73;;;;;;;;;;1644921;85;21270;-81
2022/06/03 01:09:58;;;;;;;13.85;9.40;;;;;;;;;;1630966;86;21234;-80
2022/06/03 01:12:46;;;;;;;12.35;9.90;;;;;;;;;;1631645;86;21361;-80
2022/06/03 01:15:28;;;;;;;15.13;9.45;;;;;;;;;;1643220;87;21163;-80
2022/06/03 01:18:10;;;;;;;15.08;9.23;;;;;;;;;;1639315;86;21317;-79
2022/06/03 01:20:42;;;;;;;12.25;8.95;;;;;;;;;;1635875;87;21246;-81
2022/06/03 01:23:37;;;;;;;16.83;10.47;;;;;;;;;;1641347;86;21299;-79
2022/06/03 01:26:18;;;;;;;14.15;9.33;;;;;;;;;;1641197;85;21368;-80
2022/06/03 01:29:02;;;;;;;12.05;9.30;;;;;;;;;;1640934;85;21355;-81
2022/06/03 01:31:34;;;;;;;17.52;10.08;;;;;;;;;;1710057;81;21244;-81
2022/06/03 01:34:09;;;;;;;13.93;9.63;;;;;;;;;;1739289;81;21251;-81
2022/06/03 01:36:55;;;;;;;14.95;10.13;;;;;;;;;;1659553;84;21124;-79
2022/06/03 01:39:29;;;;;;;16.05;10.43;;;;;;;;;;1589124;90;21188;-81
2022/06/03 01:42:01;;;;;;;11.80;9.13;;;;;;;;;;1673706;82;21203;-80
2022/06/03 01:44:40;;;;;;;15.10;10.10;;;;;;;;;;1737514;81;21163;-81
2022/06/03 01:47:34;;;;;;;14.63;10.63;;;;;;;;;;1735865;81;21164;-80
2022/06/03 01:50:09;;;;;;;14.43;10.48;;;;;;;;;;1734365;81;21192;-80
2022/06/03 01:52:42;;;;;;;13.78;10.03;;;;;;;;;;1745959;81;21639;-80
2022/06/03 01:55:14;;;;;;;17.70;9.85;;;;;;;;;;1742444;81;21254;-80
2022/06/03 01:57:52;;;;;;;18.45;10.13;;;;;;;;;;1763887;81;21168;-80
2022/06/03 02:00:43;;;;;;;;;;;;;;;;;;;;;
2022/06/03 02:03:36;;;;;;;19.55;11.70;;;;;;;;;;1741946;81;21175;-80
2022/06/03 02:06:16;;;;;;;15.50;11.05;;;;;;;;;;1737893;81;21266;-80
2022/06/03 02:08:48;;;;;;;18.57;11.12;;;;;;;;;;1758329;81;21183;-81
2022/06/03 02:11:38;;;;;;;16.40;11.20;;;;;;;;;;1767156;80;21583;-80
2022/06/03 02:14:12;;;;;;;17.27;11.43;;;;;;;;;;1741068;81;21192;-80
2022/06/03 02:17:01;;;;;;;19.65;12.33;;;;;;;;;;1701276;83;21288;-80
2022/06/03 02:19:34;;;;;;;19.30;12.75;;;28.00;99.90;;;;;;1737076;81;21173;-82
2022/06/03 02:22:14;;;;;;;18.35;12.85;;;28.30;99.90;;;;;;1752755;81;21234;-80
2022/06/03 02:24:47;;;;;;;17.42;12.07;;;28.30;99.90;;;;;;1758839;80;21160;-80
2022/06/03 02:27:21;;;;;;;19.23;13.85;;;;;;;;;;1728049;81;21131;-81
2022/06/03 02:32:42;;;;;;;18.80;13.88;;;;;;;;;;1758425;80;21273;-80
2022/06/03 02:35:15;;;;;;;21.17;13.68;;;;;;;;;;1752648;80;21639;-82
2022/06/03 02:37:52;;;;;;;20.30;13.72;;;;;;;;;;1756226;80;21629;-81
2022/06/03 02:40:26;;;;;;;19.70;13.85;;;;;;;;;;1758186;80;21237;-83
2022/06/03 02:43:02;;;;;;;18.40;13.30;;;;;;;;;;1759312;80;21190;-82
2022/06/03 02:45:35;;;;;;;21.70;14.65;;;;;;;;;;1748946;80;21095;-82
2022/06/03 02:48:08;;;;;;;23.65;14.07;;;;;;;;;;1751696;81;21146;-86
2022/06/03 02:50:40;;;;;;;20.80;14.80;;;;;;;;;;1751537;81;21264;-82
2022/06/03 02:53:12;;;;;;;20.60;16.00;;;;;;;;;;1755908;81;21642;-83
2022/06/03 02:55:47;;;;;;;17.92;13.90;;;;;;;;;;1754061;80;21212;-83
2022/06/03 02:58:19;;;;;;;22.02;13.65;;;;;;;;;;1758518;80;21145;-84
2022/06/03 03:00:51;;;;;;;20.40;13.78;;;;;;;;;;1747229;81;21228;-83
2022/06/03 03:03:24;;;;;;;18.25;14.07;;;;;;;;;;1753439;80;21238;-83
2022/06/03 03:05:57;;;;;;;16.25;13.25;;;;;;;;;;1755913;80;21171;-82
2022/06/03 03:08:29;;;;;;;19.57;14.33;;;;;;;;;;1754459;80;21248;-84
2022/06/03 03:11:04;;;;;;;17.57;13.80;;;;;;;;;;1752191;80;21934;-85
2022/06/03 03:13:40;;;;;;;19.02;13.83;;;;;;;;;;1759164;80;21160;-83
2022/06/03 03:16:16;;;;;;;;;;;;;;;;;;1756583;80;21106;-83
2022/06/03 03:18:52;;;;;;;21.30;14.18;;;;;;;;;;1757930;80;20508;-82
2022/06/03 03:21:26;;;;;;;18.40;13.72;;;;;;;;;;1745886;80;21182;-84
2022/06/03 03:24:04;;;;;;;14.90;13.25;;;;;;;;;;1754278;79;21323;-84
2022/06/03 03:26:39;;;;;;;20.45;13.45;;;;;;;;;;1743422;81;21316;-84
2022/06/03 03:29:14;;;;;;;21.02;14.43;;;;;;;;;;1744469;81;21289;-85
2022/06/03 03:31:50;;;;;;;20.15;13.80;;;;;;;;;;1742126;80;21202;-85
2022/06/03 03:34:29;;;;;;;20.68;12.55;;;;;;;;;;1752077;80;21171;-82
2022/06/03 03:37:00;;;;;;;17.77;13.47;;;;;;;;;;1755048;80;21230;-87
2022/06/03 03:39:34;;;;;;;15.83;12.20;;;;;;;;;;1747788;80;21210;-85
2022/06/03 03:42:09;;;;;;;18.07;13.00;;;;;;;;;;1779267;80;21222;-85
2022/06/03 03:44:46;;;;;;;16.30;12.80;;;;;;;;;;1756734;80;21175;-82
2022/06/03 03:47:20;;;;;;;18.85;12.88;;;;;;;;;;1733795;80;21226;-82
2022/06/03 03:49:53;;;;;;;19.50;12.50;;;;;;;;;;1742736;80;21283;-81
2022/06/03 03:52:26;;;;;;;16.02;12.28;;;;;;;;;;1752167;80;21189;-82
2022/06/03 03:54:58;;;;;;;18.15;12.30;;;;;;;;;;1744768;80;21111;-81
2022/06/03 03:57:31;;;;;;;14.98;11.38;;;;;;;;;;1749042;82;21246;-82
2022/06/03 04:00:03;;;;;;;17.45;11.85;;;;;;;;;;1767607;80;21233;-82
2022/06/03 04:02:34;;;;;;;16.17;11.88;;;;;;;;;;1749313;81;21120;-82
2022/06/03 04:05:06;;;;;;;17.37;12.63;;;;;;;;;;1755009;81;21152;-82
2022/06/03 04:07:38;;;;;;;17.07;11.93;;;;;;;;;;1736431;80;21229;-81
2022/06/03 04:10:12;;;;;;;17.40;12.78;;;;;;;;;;1739947;82;21144;-81
2022/06/03 04:12:45;;;;;;;16.87;12.20;;;31.40;99.90;;;;;;1738868;80;21197;-83
2022/06/03 04:15:17;;;;;;;15.35;11.70;;;;;;;;;;1736174;80;21202;-80
2022/06/03 04:17:49;;;;;;;15.78;11.78;;;;;;;;;;1758867;80;21252;-81
2022/06/03 04:20:22;;;;;;;14.30;11.28;;;31.10;99.90;;;;;;1777775;80;21193;-82
2022/06/03 04:22:55;;;;;;;15.25;10.88;;;;;;;;;;1778665;80;21166;-82
2022/06/03 04:25:28;;;;;;;16.50;11.60;;;31.60;99.90;;;;;;1764674;80;21179;-81
2022/06/03 04:28:00;;;;;;;16.97;11.55;;;;;;;;;;1745998;80;21203;-81
2022/06/03 04:30:33;;;;;;;17.85;11.28;;;31.50;99.90;;;;;;1745442;80;21197;-85
2022/06/03 04:33:06;;;;;;;15.50;11.83;;;31.40;99.90;;;;;;1743291;80;21248;-84
2022/06/03 04:35:40;;;;;;;15.98;11.22;;;;;;;;;;1747918;80;21158;-84
2022/06/03 04:38:12;;;;;;;15.32;11.28;;;;;;;;;;1745963;80;21691;-85
2022/06/03 04:40:45;;;;;;;12.75;9.98;;;31.60;99.90;;;;;;1755872;80;21119;-85
2022/06/03 04:43:21;;;;;;;13.78;11.20;;;31.70;99.90;;;;;;1809598;78;21206;-84
2022/06/03 04:45:53;;;;;;;12.05;10.25;;;;;;;;;;1809673;78;21165;-83
2022/06/03 04:48:25;;;;;;;15.15;11.35;;;;;;;;;;1803560;78;21150;-83
2022/06/03 04:50:59;;;;;;;17.25;11.65;;;31.50;99.90;;;;;;1810652;78;21217;-82
2022/06/03 04:53:31;;;;;;;17.40;10.85;;;;;;;;;;1809637;78;21122;-85
2022/06/03 04:56:04;;;;;;;12.45;10.60;;;31.60;99.90;;;;;;1815103;79;21239;-83
2022/06/03 04:58:38;;;;;;;13.78;10.30;;;31.70;99.90;;;;;;1819090;79;21182;-83
2022/06/03 05:01:10;;;;;;;14.47;10.58;;;;;;;;;;1805705;78;21197;-83
2022/06/03 05:03:44;;;;;;;15.48;10.70;;;;;;;;;;1815608;78;21229;-82
2022/06/03 05:06:16;;;;;;;15.60;10.88;;;;;;;;;;1807374;78;21133;-80
2022/06/03 05:08:49;;;;;;;15.38;10.65;;;;;;;;;;1812624;78;21170;-85
2022/06/03 05:11:24;;;;;;;11.95;10.13;;;;;;;;;;1814568;78;21071;-83
2022/06/03 05:13:56;;;;;;;15.80;10.35;;;;;;;;;;1812695;78;21210;-85
2022/06/03 05:16:31;;;;;;;13.40;10.00;;;;;;;;;;1808355;78;21216;-84
2022/06/03 05:19:06;;;;;;;12.63;9.38;;;;;;;;;;1761428;80;21289;-84
2022/06/03 05:21:40;;;;;;;14.25;10.00;;;;;;;;;;1755585;80;21134;-85
2022/06/03 05:24:13;;;;;;;18.05;9.40;;;;;;;;;;1758642;80;21257;-88
2022/06/03 05:26:47;;;;;;;13.50;9.40;;;;;;;;;;1803205;78;21197;-83
2022/06/03 05:29:22;;;;;;;12.73;9.90;;;;;;;;;;1800294;79;21144;-87
2022/06/03 05:31:54;;;;;;;10.90;9.43;;;;;;;;;;1798395;79;21206;-82
2022/06/03 05:34:27;;;;;;;12.18;9.43;;;;;;;;;;1792652;79;21092;-82
2022/06/03 05:36:59;;;;;;;13.53;10.00;;;;;;;;;;1794756;78;21118;-87
2022/06/03 05:39:31;;;;;;;15.15;9.58;;;;;;;;;;1795167;79;21744;-87
2022/06/03 05:44:40;;;;;;;10.65;9.60;;;;;;;;;;1792428;78;20510;-86
2022/06/03 05:47:12;;;;;;;12.93;10.00;;;;;;;;;;1799338;78;21202;-86
2022/06/03 05:49:45;;;;;;;14.47;9.20;;;;;;;;;;1793312;78;21181;-84
2022/06/03 05:52:17;;;;;;;10.23;9.08;;;;;;;;;;1804432;78;21186;-83
2022/06/03 05:54:55;;;;;;;12.35;9.63;;;;;;;;;;1797821;78;21128;-84
2022/06/03 05:57:27;;;;;;;16.12;9.90;;;;;;;;;;1792388;79;21198;-81
2022/06/03 05:59:59;;;;;;;11.83;8.13;;;;;;;;;;1784998;79;21176;-82
2022/06/03 06:02:33;;;;;;;15.25;9.70;;;;;;;;;;1795112;78;21173;-87
2022/06/03 06:05:06;;;;;;;13.75;9.55;;;;;;;;;;1799456;78;21221;-84
2022/06/03 06:07:38;;;;;;;15.48;9.18;;;;;;;;;;1794949;80;21073;-83
2022/06/03 06:10:10;;;;;;;11.90;8.80;;;;;;;;;;1792768;78;21562;-84
2022/06/03 06:12:42;;;;;;;11.12;8.35;;;;;;;;;;1793279;78;21158;-83
2022/06/03 06:15:14;;;;;;;10.35;8.98;;;;;;;;;;1796667;79;21226;-83
2022/06/03 06:17:46;;;;;;;9.98;7.87;;;;;;;;;;1791708;78;21261;-82
2022/06/03 06:20:18;;;;;;;15.23;8.83;;;;;;;;;;1798089;78;21669;-84
2022/06/03 06:22:50;;;;;;;12.50;8.53;;;;;;;;;;1777713;78;21158;-81
2022/06/03 06:25:22;;;;;;;12.40;7.70;;;;;;;;;;1793372;79;21097;-81
2022/06/03 06:27:55;;;;;;;11.88;8.05;;;;;;;;;;1790446;79;21630;-81
2022/06/03 06:30:31;;;;;;;10.20;7.60;;;;;;;;;;1797291;79;21172;-84
2022/06/03 06:33:03;;;;;;;10.72;7.58;;;;;;;;;;1791001;78;21171;-82
2022/06/03 06:35:35;;;;;;;11.05;8.45;;;;;;;;;;1790280;78;21129;-85
2022/06/03 06:38:07;;;;;;;10.53;7.12;;;;;;;;;;1792888;79;21169;-79
2022/06/03 06:40:39;;;;;;;10.68;6.85;;;;;;;;;;1798552;78;21209;-85
2022/06/03 06:43:13;;;;;;;10.35;7.28;;;;;;;;;;1787388;78;21219;-84
2022/06/03 06:45:45;;;;;;;12.25;7.72;;;;;;;;;;1797824;79;21230;-83
2022/06/03 06:48:17;;;;;;;13.22;8.03;;;;;;;;;;1786948;78;21134;-82
2022/06/03 06:50:49;;;;;;;10.72;7.62;;;;;;;;;;1790465;79;21227;-81
2022/06/03 06:53:21;;;;;;;9.23;7.20;;;;;;;;;;1787028;79;21122;-86
2022/06/03 06:55:53;;;;;;;11.28;7.42;;;;;;;;;;1800688;79;21174;-82
2022/06/03 06:58:25;;;;;;;9.08;7.42;;;;;;;;;;1793500;78;21142;-86
2022/06/03 07:00:58;;;;;;;11.63;8.00;;;;;;;;;;1821466;78;21143;-86
2022/06/03 07:03:30;;;;;;;10.68;7.12;;;;;;;;;;1821457;78;21165;-85
2022/06/03 07:06:02;;;;;;;11.88;7.87;;;;;;;;;;1801404;78;21174;-85
2022/06/03 07:08:35;;;;;;;14.15;7.97;;;;;;;;;;1786271;78;21149;-83
2022/06/03 07:11:08;;;;;;;14.65;9.05;;;;;;;;;;1793411;78;21698;-87
2022/06/03 07:13:40;;;;;;;10.32;6.90;;;;;;;;;;1768953;81;21184;-85
2022/06/03 07:16:13;;;;;;;10.40;7.80;;;;;;;;;;1816237;78;21279;-84
2022/06/03 07:21:18;;;;;;;10.72;7.47;;;;;;;;;;1783591;78;21166;-84
2022/06/03 07:23:50;;;;;;;12.95;7.70;;;31.90;99.90;;;;;;1785645;79;21178;-82
2022/06/03 07:26:28;;;;;;;14.25;7.90;;;;;;;;;;1769365;80;21142;-86
2022/06/03 07:29:00;;;;;;;;;;;;;;;;;;1791987;79;21134;-87
2022/06/03 07:31:32;;;;;;;11.45;7.42;;;;;;;;;;1795272;79;20476;-88
2022/06/03 07:34:07;;;;;;;13.00;8.63;;;;;;;;;;1778509;79;21146;-85
2022/06/03 07:36:39;;;;;;;11.22;7.60;;;;;;;;;;1770065;80;21155;-84
2022/06/03 07:39:10;;;;;;;9.80;7.35;;;;;;;;;;1772513;79;21237;-86
2022/06/03 07:41:40;;;;;;;9.35;7.87;;;;;;;;;;1782603;79;21170;-85
2022/06/03 07:44:13;;;;;;;11.97;8.28;;;;;;;;;;1774712;80;21274;-82
2022/06/03 07:46:48;;;;;;;12.63;7.42;;;;;;;;;;1774138;79;21166;-87
2022/06/03 07:49:17;;;;;;;9.93;7.30;;;;;;;;;;1753777;81;21181;-85
2022/06/03 07:51:48;;;;;;;10.05;7.75;;;;;;;;;;1719747;83;21712;-84
2022/06/03 07:54:19;;;;;;;17.30;10.38;;;;;;;;;;1734210;82;21187;-85
2022/06/03 07:56:51;;;;;;;14.47;10.03;;;;;;;;;;1762746;80;21194;-80
2022/06/03 07:59:22;;;;;;;17.17;9.40;;;;;;;;;;1751617;81;21224;-87
2022/06/03 08:01:54;;;;;;;11.22;8.78;;;;;;;;;;1767161;80;21135;-85
2022/06/03 08:04:26;;;;;;;11.73;8.50;;;;;;;;;;1772530;80;21179;-81
2022/06/03 08:12:05;;;;;;;17.30;10.93;;;;;;;;;;1773703;79;21268;-86
2022/06/03 08:14:36;;;;;;;17.30;11.00;;;;;;;;;;1774144;79;21173;-85
2022/06/03 08:17:10;;;;;;;18.48;11.90;;;;;;;;;;1723422;82;21140;-88
2022/06/03 08:19:44;;;;;;;19.67;12.03;;;;;;;;;;1783031;79;21579;-86
2022/06/03 08:22:16;;;;;;;24.23;12.47;;;;;;;;;;1783575;79;21152;-89
2022/06/03 08:24:50;;;;;;;18.65;12.95;;;;;;;;;;1783214;80;21163;-88
2022/06/03 08:27:23;;;;;;;16.85;11.85;;;;;;;;;;1783268;80;21148;-87
2022/06/03 08:29:56;;;;;;;16.80;11.53;;;;;;;;;;1786579;79;21188;-84
2022/06/03 08:32:28;;;;;;;13.25;11.73;;;;;;;;;;1783733;80;21116;-84
2022/06/03 08:35:03;;;;;;;14.00;11.33;;;;;;;;;;1775450;80;21680;-85
2022/06/03 08:37:37;;;;;;;15.60;11.75;;;;;;;;;;1776945;80;21279;-83
2022/06/03 08:40:09;;;;;;;18.87;12.47;;;;;;;;;;1778016;80;21687;-79
2022/06/03 08:42:59;;;;;;;15.32;13.08;;;;;;;;;;1719009;82;21191;-82
2022/06/03 08:45:32;;;;;;;15.50;12.68;;;;;;;;;;1781905;80;21182;-89
2022/06/03 08:48:22;;;;;;;15.75;13.43;;;;;;;;;;1734571;81;21277;-87
2022/06/03 08:51:06;;;;;;;14.75;11.53;;;;;;;;;;1708223;82;21251;-89
2022/06/03 08:53:39;;;;;;;15.88;13.03;;;;;;;;;;1781236;80;21598;-87
2022/06/03 08:56:11;;;;;;;17.98;12.00;;;;;;;;;;1776709;80;21228;-85
2022/06/03 08:58:43;;;;;;;18.40;13.83;;;;;;;;;;1774759;80;21693;-84
2022/06/03 09:01:19;;;;;;;15.78;13.20;;;;;;;;;;1772420;80;21194;-87
2022/06/03 09:03:51;;;;;;;17.23;13.40;;;;;;;;;;1773670;80;21878;-88
2022/06/03 09:06:28;;;;;;;21.00;14.53;;;;;;;;;;1777053;80;21159;-87
2022/06/03 09:08:57;;;;;;;17.70;12.30;;;;;;;;;;1773980;80;21111;-88
2022/06/03 09:11:27;;;;;;;17.05;12.00;;;;;;;;;;1777361;80;21203;-88
2022/06/03 09:13:59;;;;;;;23.18;12.63;;;;;;;;;;1764325;80;21228;-87
2022/06/03 09:16:30;;;;;;;16.35;12.45;;;;;;;;;;1766812;80;21190;-85
2022/06/03 09:19:02;;;;;;;18.98;12.95;;;;;;;;;;1765133;80;21109;-88
2022/06/03 09:21:41;;;;;;;16.80;13.00;;;;;;;;;;1764045;80;21200;-87
2022/06/03 09:24:09;;;;;;;15.30;12.68;;;;;;;;;;1767331;80;21166;-88
2022/06/03 09:26:44;;;;;;;17.77;13.20;;;;;;;;;;1767807;80;21154;-87
2022/06/03 09:29:16;;;;;;;20.85;13.03;;;;;;;;;;1804614;75;21163;-86
2022/06/03 09:31:48;;;;;;;19.67;12.60;;;;;;;;;;1848435;76;21063;-87
2022/06/03 09:34:22;;;;;;;19.30;13.05;;;;;;;;;;1863659;76;21209;-88
2022/06/03 09:36:53;;;;;;;16.52;11.50;;;;;;;;;;1813254;78;21088;-88
2022/06/03 09:39:24;;;;;;;14.68;11.70;;;;;;;;;;1788350;78;21093;-88
2022/06/03 09:41:57;;;;;;;22.67;13.88;;;;;;;;;;1856933;76;21131;-88
2022/06/03 09:44:28;;;;;;;18.52;12.00;;;;;;;;;;1811682;78;21141;-87
2022/06/03 09:47:00;;;;;;;13.88;10.23;;;;;;;;;;1821311;78;21080;-87
2022/06/03 09:49:45;;;;;;;14.23;11.80;;;;;;;;;;1813330;78;21421;-87
2022/06/03 09:55:02;;;;;;;14.58;10.65;;;;;;;;;;1869520;74;21130;-88
2022/06/03 09:57:34;;;;;;;13.50;10.13;;;;;;;;;;1876524;76;21108;-87
2022/06/03 10:00:09;;;;;;;17.73;11.90;;;;;;;;;;1852947;76;21540;-88
2022/06/03 10:02:48;;;;;;;15.58;10.80;;;;;;;;;;1856390;75;21150;-87
2022/06/03 10:05:28;;;;;;;12.98;10.03;;;;;;;;;;1878400;75;21173;-87
2022/06/03 10:08:04;;;;;;;17.25;10.82;;;;;;;;;;1873952;75;21077;-86
2022/06/03 10:13:34;;;;;;;14.53;10.85;;;;;;;;;;1853438;76;21198;-88
2022/06/03 10:16:09;;;;;;;15.98;11.25;;;;;;;;;;1873397;76;21080;-84
2022/06/03 10:18:44;;;;;;;15.10;11.57;;;;;;;;;;1862914;76;21175;-86
2022/06/03 10:21:17;;;;;;;16.37;10.72;;;;;;;;;;1876563;75;21091;-86
2022/06/03 10:23:56;;;;;;;15.10;11.53;;;;;;;;;;1871019;75;21133;-86
2022/06/03 10:26:37;;;;;;;15.60;9.20;;;;;;;;;;1890734;75;21224;-86
2022/06/03 10:29:30;;;;;;;15.15;10.10;;;;;;;;;;1893962;75;21145;-84
2022/06/03 10:32:19;;;;;;;13.07;9.67;;;;;;;;;;1870118;77;21199;-87
2022/06/03 10:34:51;;;;;;;17.95;11.10;;;;;;;;;;1867773;75;21450;-87
2022/06/03 10:37:23;;;;;;;16.05;10.98;;;;;;;;;;1819578;78;21492;-88
2022/06/03 10:40:01;;;;;;;15.50;11.00;;;;;;;;;;1819621;78;21216;-87
2022/06/03 10:42:36;;;;;;;15.83;10.82;;;;;;;;;;1874961;75;21810;-88
2022/06/03 10:45:08;;;;;;;15.25;10.93;;;;;;;;;;1874805;75;21211;-87
2022/06/03 10:50:35;;;;;;;22.05;15.98;;;;;;;;;;1872465;75;21500;-87
2022/06/03 11:01:24;;;;;;;18.92;11.70;;;;;;;;;;1856498;77;21097;-87
2022/06/03 11:03:56;;;;;;;19.73;12.73;;;;;;;;;;1869098;75;21092;-87
2022/06/03 11:06:36;;;;;;;15.32;11.43;;;;;;;;;;1892844;75;21056;-86
2022/06/03 11:09:15;;;;;;;16.45;11.55;;;;;;;;;;1883436;75;21036;-88
2022/06/03 11:11:52;;;;;;;18.05;11.73;;;;;;;;;;1838560;77;21662;-86
2022/06/03 11:14:24;;;;;;;14.38;11.40;;;;;;;;;;1898423;74;21826;-86
2022/06/03 11:16:58;;;;;;;16.90;11.55;;;;;;;;;;1897098;76;21064;-85
2022/06/03 11:19:33;;;;;;;17.30;11.10;;;;;;;;;;1897165;74;21084;-86
2022/06/03 11:22:08;;;;;;;24.30;12.03;;;;;;;;;;1898468;73;21138;-85
2022/06/03 11:24:43;;;;;;;21.35;13.03;;;;;;;;;;1859753;77;21724;-85
2022/06/03 11:27:28;;;;;;;22.67;13.03;;;;;;;;;;1860520;77;21069;-88
2022/06/03 11:30:01;;;;;;;19.45;13.80;;;;;;;;;;1883873;76;21175;-86
2022/06/03 11:32:42;;;;;;;20.75;14.00;;;;;;;;;;1932195;73;21280;-86
2022/06/03 11:35:23;;;;;;;23.22;12.73;;;;;;;;;;1927510;74;21483;-90
2022/06/03 11:37:56;;;;;;;11.55;6.90;;;;;;;;;;1898072;74;21194;-88
2022/06/03 11:40:44;;;;;;;9.43;2.87;;;;;;;;;;1915716;74;21430;-91
2022/06/03 11:43:16;;;;;;;3.80;2.10;;;;;;;;;;1911456;74;21079;-87
2022/06/03 11:45:51;;;;;;;6.95;1.55;;;;;;;;;;1876299;76;21173;-86
2022/06/03 11:48:26;;;;;;;6.45;1.22;;;;;;;;;;1919316;73;21075;-84
2022/06/03 11:51:03;;;;;;;5.42;2.00;;;;;;;;;;1912262;74;21111;-84
2022/06/03 11:53:40;;;;;;;5.65;2.00;;;;;;;;;;1886718;74;21084;-87
2022/06/03 11:56:17;;;;;;;8.75;2.37;;;;;;;;;;1927632;74;21095;-84
2022/06/03 11:58:50;;;;;;;8.50;3.15;;;27.40;99.90;;;;;;1904654;74;21029;-85
2022/06/03 12:01:25;;;;;;;7.95;3.20;;;;;;;;;;1909310;74;21182;-85
2022/06/03 12:04:08;;;;;;;9.43;3.67;;;26.90;99.90;;;;;;1850039;74;21245;-84
2022/06/03 12:06:46;;;;;;;12.00;3.83;;;;;;;;;;1856329;74;21573;-84
2022/06/03 12:09:19;;;;;;;7.22;3.10;;;;;;;;;;1849836;75;21173;-83
2022/06/03 12:14:30;;;;;;;8.03;3.20;;;;;;;;;;1828145;77;21280;-85
2022/06/03 12:17:07;;;;;;;7.33;3.20;;;;;;;;;;1838374;77;21137;-83
2022/06/03 12:19:49;;;;;;;7.35;3.10;;;;;;;;;;1834824;77;21890;-84
2022/06/03 12:22:25;;;;;;;5.37;2.58;;;;;;;;;;1820563;79;21516;-83
2022/06/03 12:25:04;;;;;;;5.55;2.33;;;;;;;;;;1830446;77;21166;-82
2022/06/03 12:27:41;;;;;;;7.05;2.92;;;;;;;;;;1822856;77;21099;-85
2022/06/03 12:30:14;;;;;;;9.43;2.83;;;;;;;;;;1828271;77;21136;-84
2022/06/03 12:32:49;;;;;;;8.80;2.80;;;;;;;;;;1828698;77;21227;-84
2022/06/03 12:35:23;;;;;;;5.83;2.00;;;;;;;;;;1831384;77;21084;-86
2022/06/03 12:37:58;;;;;;;6.70;2.35;;;;;;;;;;1833763;77;21143;-86
2022/06/03 12:40:32;;;;;;;5.13;2.50;;;25.70;99.90;;;;;;1834357;77;21201;-86
2022/06/03 12:43:05;;;;;;;7.53;2.60;;;;;;;;;;1831588;77;21281;-85
2022/06/03 12:45:36;;;;;;;6.10;3.37;;;;;;;;;;1827129;77;21157;-85
2022/06/03 12:48:10;;;;;;;5.33;2.72;;;;;;;;;;1805689;79;21092;-84
2022/06/03 12:50:46;;;;;;;5.67;2.92;;;;;;;;;;1883512;75;21726;-84
2022/06/03 12:53:20;;;;;;;5.42;2.22;;;;;;;;;;1876923;75;21225;-86
2022/06/03 12:55:55;;;;;;;6.30;2.52;;;24.80;99.90;;;;;;1833767;78;21204;-84
2022/06/03 12:58:28;;;;;;;4.97;2.25;;;;;;;;;;1823694;77;21121;-86
2022/06/03 13:01:02;;;;;;;6.12;2.80;;;;;;;;;;1818351;78;21209;-83
2022/06/03 13:03:35;;;;;;;4.25;2.40;;;;;;;;;;1848286;77;21163;-86
2022/06/03 13:06:09;;;;;;;3.65;2.22;;;;;;;;;;1873283;76;21139;-84
2022/06/03 13:11:16;;;;;;;5.00;2.27;;;;;;;;;;1843386;78;21191;-84
2022/06/03 13:13:48;;;;;;;3.72;2.00;;;;;;;;;;1834763;78;21122;-85
2022/06/03 13:16:19;;;;;;;5.28;2.55;;;;;;;;;;1874190;76;21225;-83
2022/06/03 13:19:03;;;;;;;6.03;2.20;;;;;;;;;;1872164;76;21217;-84
2022/06/03 13:21:31;;;;;;;5.40;2.15;;;;;;;;;;1875759;76;21197;-84
2022/06/03 13:24:02;;;;;;;5.58;2.45;;;;;;;;;;1850886;76;21152;-86
2022/06/03 13:26:32;;;;;;;5.00;2.55;;;;;;;;;;1814303;78;21531;-84
2022/06/03 13:29:06;;;;;;;5.55;2.67;;;;;;;;;;1853778;76;21154;-85
2022/06/03 13:31:36;;;;;;;3.30;1.77;;;;;;;;;;1853266;76;21268;-86
2022/06/03 13:34:13;;;;;;;6.50;2.30;;;;;;;;;;1877493;75;21153;-85
2022/06/03 13:36:39;;;;;;;4.35;2.30;;;;;;;;;;1856172;77;21075;-83
2022/06/03 13:39:13;;;;;;;2.92;2.10;;;;;;;;;;1865137;75;21170;-84
2022/06/03 13:44:19;;;;;;;5.53;2.52;;;;;;;;;;1873518;75;21167;-86
2022/06/03 13:46:50;;;;;;;3.50;2.05;;;;;;;;;;1893196;75;21151;-85
2022/06/03 13:49:20;;;;;;;4.08;1.90;;;;;;;;;;1874648;75;21190;-84
2022/06/03 13:51:52;;;;;;;3.62;2.10;;;;;;;;;;1865565;75;21132;-84
2022/06/03 13:54:27;;;;;;;4.15;2.33;;;25.10;99.90;;;;;;1883001;75;21155;-86
2022/06/03 13:57:00;;;;;;;5.55;2.47;;;25.20;99.90;;;;;;1879198;75;21588;-84
2022/06/03 13:59:37;;;;;;;4.60;2.42;;;25.00;99.90;;;;;;1882193;74;21236;-85
2022/06/03 14:02:14;;;;;;;4.35;2.77;;;25.20;99.90;;;;;;1880280;75;21595;-85
2022/06/03 14:04:48;;;;;;;6.20;2.50;;;25.30;99.90;;;;;;1878903;75;21148;-84
2022/06/03 14:07:25;;;;;;;9.53;3.20;;;25.30;99.90;;;;;;1882022;75;21123;-85
2022/06/03 14:09:59;;;;;;;6.28;3.08;;;25.30;99.90;;;;;;1884957;75;21123;-84
2022/06/03 14:12:35;;;;;;;6.62;3.30;;;25.40;99.90;;;;;;1885994;75;21088;-84
2022/06/03 14:15:08;;;;;;;6.08;3.80;;;25.10;99.90;;;;;;1881249;75;21667;-85
2022/06/03 14:17:42;;;;;;;7.87;3.80;;;25.30;99.90;;;;;;1876036;75;21207;-83
2022/06/03 14:20:13;;;;;;;5.90;3.30;;;25.40;99.90;;;;;;1798963;78;21196;-84
2022/06/03 14:22:50;;;;;;;6.65;3.20;;;25.60;99.90;;;;;;1852932;77;21166;-84
2022/06/03 14:25:23;;;;;;;5.80;3.17;;;25.30;99.90;;;;;;1839871;77;21607;-84
2022/06/03 14:28:01;;;;;;;6.75;3.67;;;25.50;99.90;;;;;;1809477;78;21261;-84
2022/06/03 14:30:30;;;;;;;5.90;3.40;;;25.40;99.90;;;;;;1871121;75;21160;-84
2022/06/03 14:33:07;;;;;;;4.72;2.95;;;25.50;99.90;;;;;;1884899;75;21591;-82
2022/06/03 14:35:43;;;;;;;4.10;2.98;;;25.30;99.90;;;;;;1888412;75;21419;-83
2022/06/03 14:38:18;;;;;;;5.60;3.20;;;25.30;99.90;;;;;;1875699;75;21218;-78
2022/06/03 14:40:51;;;;;;;5.72;3.65;;;25.50;99.90;;;;;;1880410;75;21220;-83
2022/06/03 14:43:24;;;;;;;4.08;3.30;;;25.40;99.90;;;;;;1846012;76;21584;-82
2022/06/03 14:45:58;;;;;;;6.28;3.12;;;25.50;99.90;;;;;;1848770;76;21629;-81
2022/06/03 14:48:37;;;;;;;4.45;2.75;;;25.50;99.90;;;;;;1822465;77;21154;-83
2022/06/03 14:51:10;;;;;;;7.67;3.30;;;25.40;99.90;;;;;;1834545;76;21052;-83
2022/06/03 14:53:46;;;;;;;7.20;3.20;;;25.50;99.90;;;;;;1850337;76;21251;-83
2022/06/03 14:56:18;;;;;;;8.08;2.90;;;25.50;99.90;;;;;;1841036;76;21167;-82
2022/06/03 14:58:51;;;;;;;5.53;2.90;;;25.40;99.90;;;;;;1891736;74;21166;-83
2022/06/03 15:01:24;;;;;;;5.25;2.80;;;25.50;99.90;;;;;;1881698;75;21159;-80
2022/06/03 15:04:00;;;;;;;6.40;3.52;;;25.20;99.90;;;;;;1888053;75;21084;-81
2022/06/03 15:06:33;;;;;;;6.70;3.25;;;25.50;99.90;;;;;;1892956;75;21152;-82
2022/06/03 15:09:06;;;;;;;5.90;3.20;;;25.20;99.90;;;;;;1884358;75;21163;-82
2022/06/03 15:11:41;;;;;;;4.85;2.75;;;25.40;99.90;;;;;;1887178;75;21119;-82
2022/06/03 15:14:14;;;;;;;4.92;2.62;;;25.00;99.90;;;;;;1893156;75;21123;-82
2022/06/03 15:16:52;;;;;;;6.08;2.77;;;25.00;99.90;;;;;;1883277;75;21209;-82
2022/06/03 15:19:24;;;;;;;4.00;2.60;;;25.10;99.90;;;;;;1883017;75;21119;-83
2022/06/03 15:21:57;;;;;;;9.35;3.30;;;24.90;99.90;;;;;;1887622;75;21213;-83
2022/06/03 15:24:28;;;;;;;8.60;4.15;;;25.20;99.90;;;;;;1887386;75;21210;-82
2022/06/03 15:27:00;;;;;;;5.30;3.17;;;25.10;99.90;;;;;;1883819;75;21132;-82
2022/06/03 15:29:33;;;;;;;6.10;3.30;;;24.80;99.90;;;;;;1888546;75;21673;-82